createdAt,value
2023-03-04T00:00:20.495Z,53.50
2023-03-04T00:03:15.546Z,50.30
2023-03-04T00:05:48.569Z,51.50
2023-03-04T00:08:21.026Z,54.20
2023-03-04T00:10:54.075Z,53.10
2023-03-04T00:13:26.386Z,53.40
2023-03-04T00:15:58.760Z,51.10
2023-03-04T00:18:31.076Z,53.50
2023-03-04T00:21:03.583Z,53.00
2023-03-04T00:23:36.080Z,48.50
2023-03-04T00:26:09.762Z,51.20
2023-03-04T00:28:42.065Z,50.40
2023-03-04T00:31:14.655Z,49.10
2023-03-04T00:33:47.155Z,48.00
2023-03-04T00:36:19.511Z,46.10
2023-03-04T00:38:51.828Z,46.80
2023-03-04T00:41:24.179Z,50.00
2023-03-04T00:43:56.668Z,58.10
2023-03-04T00:46:28.885Z,48.50
2023-03-04T00:49:01.273Z,46.40
2023-03-04T00:51:33.823Z,48.60
2023-03-04T00:54:06.402Z,48.90
2023-03-04T00:56:38.763Z,50.50
2023-03-04T00:59:11.155Z,46.70
2023-03-04T01:01:43.647Z,49.10
2023-03-04T01:04:16.039Z,49.90
2023-03-04T01:06:48.429Z,55.60
2023-03-04T01:09:20.826Z,42.80
2023-03-04T01:11:53.174Z,49.20
2023-03-04T01:14:25.611Z,50.30
2023-03-04T01:16:58.022Z,55.00
2023-03-04T01:19:30.400Z,51.80
2023-03-04T01:22:03.725Z,48.80
2023-03-04T01:24:36.731Z,50.50
2023-03-04T01:27:09.058Z,52.70
2023-03-04T01:29:41.414Z,52.90
2023-03-04T01:32:13.768Z,51.00
2023-03-04T01:34:46.229Z,53.40
2023-03-04T01:37:19.462Z,50.10
2023-03-04T01:39:51.789Z,52.90
2023-03-04T01:42:25.923Z,51.90
2023-03-04T01:44:58.271Z,48.70
2023-03-04T01:47:33.578Z,50.70
2023-03-04T01:50:15.650Z,47.50
2023-03-04T01:52:47.966Z,48.80
2023-03-04T01:55:22.188Z,50.80
2023-03-04T01:57:55.832Z,52.30
2023-03-04T02:00:33.830Z,49.60
2023-03-04T02:03:11.511Z,48.50
2023-03-04T02:05:46.697Z,51.20
2023-03-04T02:08:22.261Z,52.10
2023-03-04T02:10:55.591Z,53.00
2023-03-04T02:13:27.916Z,53.50
2023-03-04T02:16:00.458Z,54.90
2023-03-04T02:18:32.855Z,46.70
2023-03-04T02:21:13.957Z,49.10
2023-03-04T02:23:52.634Z,48.10
2023-03-04T02:26:26.560Z,49.30
2023-03-04T02:29:01.114Z,46.10
2023-03-04T02:31:37.112Z,49.10
2023-03-04T02:34:14.894Z,49.60
2023-03-04T02:36:48.589Z,51.80
2023-03-04T02:39:30.980Z,52.10
2023-03-04T02:42:04.768Z,51.10
2023-03-04T02:44:38.746Z,53.20
2023-03-04T02:47:13.329Z,50.00
2023-03-04T02:49:45.967Z,48.80
2023-03-04T02:52:22.136Z,49.00
2023-03-04T02:54:54.514Z,55.50
2023-03-04T02:57:26.828Z,50.00
2023-03-04T02:59:59.099Z,52.60
2023-03-04T03:02:31.486Z,49.50
2023-03-04T03:05:03.998Z,48.00
2023-03-04T03:07:36.366Z,52.20
2023-03-04T03:10:09.637Z,49.60
2023-03-04T03:12:42.093Z,49.50
2023-03-04T03:15:15.088Z,47.70
2023-03-04T03:17:47.642Z,46.90
2023-03-04T03:20:20.619Z,50.90
2023-03-04T03:22:52.911Z,50.40
2023-03-04T03:25:25.600Z,45.90
2023-03-04T03:27:57.875Z,46.70
2023-03-04T03:30:31.328Z,47.90
2023-03-04T03:33:03.717Z,49.60
2023-03-04T03:35:36.171Z,47.00
2023-03-04T03:38:08.590Z,49.40
2023-03-04T03:40:41.029Z,50.80
2023-03-04T03:43:13.382Z,52.90
2023-03-04T03:45:45.832Z,49.90
2023-03-04T03:48:18.156Z,51.20
2023-03-04T03:50:50.634Z,51.40
2023-03-04T03:53:22.965Z,52.70
2023-03-04T03:55:56.212Z,48.50
2023-03-04T03:58:28.580Z,50.60
2023-03-04T04:01:01.085Z,50.20
2023-03-04T04:03:33.409Z,46.30
2023-03-04T04:06:05.939Z,45.50
2023-03-04T04:08:38.246Z,48.30
2023-03-04T04:11:12.809Z,50.70
2023-03-04T04:13:45.343Z,52.60
2023-03-04T04:16:17.889Z,47.60
2023-03-04T04:18:50.497Z,47.30
2023-03-04T04:21:23.027Z,47.50
2023-03-04T04:23:55.441Z,51.60
2023-03-04T04:26:27.777Z,50.00
2023-03-04T04:29:00.143Z,47.80
2023-03-04T04:31:32.572Z,48.70
2023-03-04T04:34:04.862Z,50.10
2023-03-04T04:36:37.285Z,51.00
2023-03-04T04:39:09.613Z,51.50
2023-03-04T04:41:43.638Z,50.50
2023-03-04T04:44:16.464Z,48.80
2023-03-04T04:46:48.844Z,51.50
2023-03-04T04:49:21.582Z,55.00
2023-03-04T04:51:53.875Z,56.10
2023-03-04T04:54:26.810Z,53.40
2023-03-04T04:56:59.123Z,52.00
2023-03-04T04:59:31.503Z,52.10
2023-03-04T05:02:03.856Z,50.70
2023-03-04T05:04:36.305Z,53.00
2023-03-04T05:07:08.691Z,52.80
2023-03-04T05:09:41.398Z,54.70
2023-03-04T05:12:13.658Z,53.10
2023-03-04T05:14:45.922Z,54.50
2023-03-04T05:17:18.358Z,50.80
2023-03-04T05:19:51.643Z,52.90
2023-03-04T05:22:23.888Z,51.10
2023-03-04T05:24:57.343Z,54.20
2023-03-04T05:27:29.630Z,53.50
2023-03-04T05:30:02.033Z,56.60
2023-03-04T05:32:34.438Z,53.10
2023-03-04T05:35:08.064Z,51.60
2023-03-04T05:37:40.481Z,54.50
2023-03-04T05:40:15.282Z,53.20
2023-03-04T05:42:47.746Z,50.80
2023-03-04T05:45:20.386Z,52.60
2023-03-04T05:47:52.785Z,55.00
2023-03-04T05:50:25.902Z,53.10
2023-03-04T05:52:58.373Z,54.40
2023-03-04T05:55:30.798Z,52.70
2023-03-04T05:58:03.267Z,56.30
2023-03-04T06:00:35.649Z,53.00
2023-03-04T06:03:08.523Z,55.90
2023-03-04T06:05:40.859Z,51.90
2023-03-04T06:08:14.018Z,54.50
2023-03-04T06:10:46.294Z,54.80
2023-03-04T06:13:18.568Z,52.30
2023-03-04T06:15:55.333Z,59.90
2023-03-04T06:18:29.018Z,54.60
2023-03-04T06:21:03.521Z,58.40
2023-03-04T06:23:36.068Z,59.20
2023-03-04T06:26:12.323Z,55.40
2023-03-04T06:28:44.741Z,58.10
2023-03-04T06:31:17.182Z,50.70
2023-03-04T06:33:50.088Z,53.80
2023-03-04T06:36:22.467Z,52.10
2023-03-04T06:38:54.663Z,55.20
2023-03-04T06:41:27.002Z,51.30
2023-03-04T06:43:59.503Z,51.60
2023-03-04T06:46:32.099Z,46.60
2023-03-04T06:49:04.733Z,51.70
2023-03-04T06:51:37.316Z,49.90
2023-03-04T06:54:10.619Z,45.90
2023-03-04T06:56:42.948Z,47.10
2023-03-04T06:59:15.358Z,48.20
2023-03-04T07:01:47.664Z,47.60
2023-03-04T07:04:20.274Z,55.60
2023-03-04T07:06:52.758Z,58.80
2023-03-04T07:09:25.228Z,59.70
2023-03-04T07:11:57.512Z,61.10
2023-03-04T07:14:30.072Z,66.70
2023-03-04T07:17:02.456Z,63.20
2023-03-04T07:19:34.854Z,61.00
2023-03-04T07:22:07.385Z,52.30
2023-03-04T07:24:39.776Z,58.90
2023-03-04T07:27:12.164Z,61.50
2023-03-04T07:29:44.425Z,59.20
2023-03-04T07:32:17.000Z,61.90
2023-03-04T07:34:49.436Z,61.70
2023-03-04T07:37:22.382Z,61.00
2023-03-04T07:39:54.734Z,67.20
2023-03-04T07:42:27.157Z,69.20
2023-03-04T07:45:00.271Z,64.00
2023-03-04T07:47:32.748Z,66.50
2023-03-04T07:50:05.314Z,68.20
2023-03-04T07:52:41.385Z,60.20
2023-03-04T07:55:16.633Z,67.30
2023-03-04T07:57:50.567Z,61.80
2023-03-04T08:00:24.535Z,64.50
2023-03-04T08:02:57.149Z,61.60
2023-03-04T08:05:29.472Z,57.40
2023-03-04T08:08:01.818Z,65.30
2023-03-04T08:10:34.113Z,66.80
2023-03-04T08:13:06.443Z,60.20
2023-03-04T08:15:43.488Z,64.10
2023-03-04T08:18:15.919Z,63.00
2023-03-04T08:20:48.267Z,69.80
2023-03-04T08:23:20.692Z,61.60
2023-03-04T08:25:53.195Z,64.30
2023-03-04T08:28:25.504Z,65.70
2023-03-04T08:30:58.230Z,66.00
2023-03-04T08:33:30.675Z,64.60
2023-03-04T08:36:03.133Z,57.30
2023-03-04T08:38:37.161Z,70.70
2023-03-04T08:41:10.022Z,62.30
2023-03-04T08:43:42.734Z,60.60
2023-03-04T08:46:15.288Z,61.80
2023-03-04T08:48:48.112Z,58.90
2023-03-04T08:51:20.666Z,58.90
2023-03-04T08:53:53.155Z,58.00
2023-03-04T08:56:25.608Z,53.20
2023-03-04T08:58:58.150Z,44.20
2023-03-04T09:01:30.554Z,47.10
2023-03-04T09:04:02.873Z,50.50
2023-03-04T09:06:35.272Z,40.70
2023-03-04T09:09:07.888Z,39.00
2023-03-04T09:11:40.534Z,38.10
2023-03-04T09:14:12.997Z,45.70
2023-03-04T09:16:45.381Z,47.90
2023-03-04T09:19:17.727Z,42.70
2023-03-04T09:21:50.127Z,41.20
2023-03-04T09:24:22.417Z,42.20
2023-03-04T09:26:55.574Z,35.10
2023-03-04T09:29:27.957Z,34.30
2023-03-04T09:32:00.369Z,33.20
2023-03-04T09:34:32.670Z,27.80
2023-03-04T09:37:05.049Z,28.80
2023-03-04T09:39:37.559Z,29.70
2023-03-04T09:42:19.593Z,29.70
2023-03-04T09:44:53.453Z,29.00
2023-03-04T09:47:28.093Z,29.20
2023-03-04T09:50:03.984Z,26.30
2023-03-04T09:52:51.834Z,28.50
2023-03-04T09:55:29.761Z,29.20
2023-03-04T09:58:08.233Z,29.00
2023-03-04T10:00:43.658Z,28.10
2023-03-04T10:03:22.001Z,23.80
2023-03-04T10:06:01.085Z,28.50
2023-03-04T10:08:45.673Z,27.30
2023-03-04T10:11:24.883Z,27.40
2023-03-04T10:14:13.268Z,28.50
2023-03-04T10:16:50.451Z,28.70
2023-03-04T10:19:38.430Z,28.50
2023-03-04T10:22:22.168Z,26.00
2023-03-04T10:24:57.156Z,27.90
2023-03-04T10:27:30.357Z,26.30
2023-03-04T10:30:03.488Z,27.00
2023-03-04T10:32:35.937Z,23.30
2023-03-04T10:35:13.485Z,30.10
2023-03-04T10:37:54.019Z,28.70
2023-03-04T10:40:28.654Z,25.00
2023-03-04T10:43:07.304Z,27.00
2023-03-04T10:45:43.321Z,25.40
2023-03-04T10:48:26.716Z,30.50
2023-03-04T10:51:14.690Z,26.50
2023-03-04T10:53:48.773Z,27.60
2023-03-04T10:56:42.971Z,27.10
2023-03-04T10:59:46.375Z,24.50
2023-03-04T11:02:25.451Z,28.20
2023-03-04T11:05:07.431Z,31.50
2023-03-04T11:07:54.440Z,28.50
2023-03-04T11:10:31.462Z,29.20
2023-03-04T11:13:10.225Z,27.40
2023-03-04T11:15:53.458Z,29.60
2023-03-04T11:18:30.793Z,31.00
2023-03-04T11:21:04.189Z,29.70
2023-03-04T11:23:43.029Z,29.50
2023-03-04T11:26:19.851Z,30.50
2023-03-04T11:28:58.229Z,35.60
2023-03-04T11:31:36.540Z,30.70
2023-03-04T11:34:17.504Z,32.70
2023-03-04T11:36:57.439Z,35.20
2023-03-04T11:39:37.627Z,32.70
2023-03-04T11:42:25.045Z,35.10
2023-03-04T11:44:58.223Z,34.80
2023-03-04T11:47:42.611Z,36.50
2023-03-04T11:50:34.393Z,34.60
2023-03-04T11:53:34.022Z,36.00
2023-03-04T11:56:24.079Z,43.80
2023-03-04T11:59:20.529Z,41.50
2023-03-04T12:02:06.155Z,43.30
2023-03-04T12:04:48.984Z,44.40
2023-03-04T12:07:40.555Z,47.30
2023-03-04T12:10:23.667Z,48.20
2023-03-04T12:13:24.704Z,49.70
2023-03-04T12:16:06.251Z,44.90
2023-03-04T12:18:51.219Z,47.70
2023-03-04T12:21:44.798Z,44.60
2023-03-04T12:24:35.606Z,50.70
2023-03-04T12:27:18.135Z,50.40
2023-03-04T12:29:57.992Z,48.50
2023-03-04T12:32:41.721Z,50.40
2023-03-04T12:35:38.060Z,46.90
2023-03-04T12:38:45.691Z,53.80
2023-03-04T12:41:29.693Z,46.70
2023-03-04T12:44:13.411Z,46.20
2023-03-04T12:46:59.140Z,49.60
2023-03-04T12:49:51.300Z,47.00
2023-03-04T12:52:34.342Z,49.20
2023-03-04T12:55:11.405Z,45.00
2023-03-04T12:57:44.084Z,50.70
2023-03-04T13:00:31.845Z,49.40
2023-03-04T13:03:12.408Z,39.50
2023-03-04T13:06:08.979Z,41.50
2023-03-04T13:08:52.705Z,41.30
2023-03-04T13:11:55.863Z,41.40
2023-03-04T13:14:33.925Z,41.50
2023-03-04T13:17:43.673Z,48.90
2023-03-04T13:20:23.384Z,45.50
2023-03-04T13:22:59.439Z,43.00
2023-03-04T13:25:44.303Z,42.70
2023-03-04T13:28:25.760Z,42.20
2023-03-04T13:31:34.114Z,43.20
2023-03-04T13:34:28.925Z,44.40
2023-03-04T13:37:01.238Z,40.80
2023-03-04T13:39:38.044Z,42.30
2023-03-04T13:42:42.604Z,38.40
2023-03-04T13:45:36.781Z,40.10
2023-03-04T13:48:24.959Z,41.60
2023-03-04T13:50:57.677Z,37.90
2023-03-04T13:53:47.592Z,42.70
2023-03-04T13:56:39.715Z,46.50
2023-03-04T13:59:33.725Z,42.50
2023-03-04T14:02:12.814Z,44.00
2023-03-04T14:04:46.670Z,43.90
2023-03-04T14:07:26.195Z,42.10
2023-03-04T14:10:01.353Z,46.10
2023-03-04T14:12:36.789Z,45.10
2023-03-04T14:15:23.826Z,47.40
2023-03-04T14:17:58.527Z,40.80
2023-03-04T14:20:33.278Z,43.60
2023-03-04T14:23:24.279Z,49.90
2023-03-04T14:26:07.190Z,46.80
2023-03-04T14:28:47.982Z,47.90
2023-03-04T14:31:23.201Z,47.20
2023-03-04T14:34:02.093Z,47.40
2023-03-04T14:36:37.627Z,44.90
2023-03-04T14:39:16.661Z,47.10
2023-03-04T14:41:51.771Z,42.80
2023-03-04T14:44:30.650Z,41.40
2023-03-04T14:47:09.109Z,38.10
2023-03-04T14:49:42.020Z,41.90
2023-03-04T14:52:36.251Z,42.20
2023-03-04T14:55:25.620Z,42.90
2023-03-04T14:58:10.230Z,42.40
2023-03-04T15:00:43.294Z,40.50
2023-03-04T15:03:25.622Z,39.70
2023-03-04T15:05:58.575Z,45.50
2023-03-04T15:08:35.521Z,36.30
2023-03-04T15:11:10.029Z,42.00
2023-03-04T15:13:44.614Z,38.70
2023-03-04T15:16:18.712Z,44.00
2023-03-04T15:19:06.098Z,40.10
2023-03-04T15:21:41.362Z,41.30
2023-03-04T15:24:15.480Z,39.10
2023-03-04T15:26:50.307Z,39.90
2023-03-04T15:29:23.760Z,35.70
2023-03-04T15:31:56.245Z,39.00
2023-03-04T15:34:28.746Z,38.40
2023-03-04T15:37:02.955Z,35.00
2023-03-04T15:39:35.904Z,38.00
2023-03-04T15:42:13.655Z,36.40
2023-03-04T15:44:46.447Z,35.00
2023-03-04T15:47:18.850Z,31.20
2023-03-04T15:49:52.720Z,32.80
2023-03-04T15:52:25.941Z,34.70
2023-03-04T15:54:58.323Z,32.70
2023-03-04T15:57:30.984Z,30.10
2023-03-04T16:00:03.637Z,29.10
2023-03-04T16:02:36.056Z,30.30
2023-03-04T16:05:10.252Z,29.90
2023-03-04T16:07:43.559Z,28.70
2023-03-04T16:10:20.124Z,30.20
2023-03-04T16:12:53.488Z,26.20
2023-03-04T16:15:28.511Z,29.80
2023-03-04T16:18:00.939Z,25.70
2023-03-04T16:20:33.626Z,26.30
2023-03-04T16:23:06.757Z,26.20
2023-03-04T16:25:39.143Z,25.60
2023-03-04T16:28:13.723Z,25.20
2023-03-04T16:30:46.330Z,24.30
2023-03-04T16:33:18.843Z,26.70
2023-03-04T16:35:52.490Z,25.30
2023-03-04T16:38:28.284Z,27.90
2023-03-04T16:43:32.357Z,26.50
2023-03-04T16:46:04.681Z,25.70
2023-03-04T16:48:37.048Z,23.00
2023-03-04T16:51:16.858Z,24.80
2023-03-04T16:53:53.609Z,27.00
2023-03-04T16:56:26.090Z,27.70
2023-03-04T16:59:00.269Z,27.50
2023-03-04T17:01:34.150Z,27.80
2023-03-04T17:04:06.723Z,28.50
2023-03-04T17:06:40.087Z,29.00
2023-03-04T17:09:12.687Z,28.50
2023-03-04T17:11:45.120Z,27.10
2023-03-04T17:14:17.570Z,27.00
2023-03-04T17:16:49.938Z,28.20
2023-03-04T17:19:23.064Z,24.00
2023-03-04T17:21:57.053Z,30.70
2023-03-04T17:24:29.994Z,29.00
2023-03-04T17:27:02.299Z,30.70
2023-03-04T17:29:34.586Z,29.30
2023-03-04T17:32:07.427Z,31.50
2023-03-04T17:34:39.868Z,27.80
2023-03-04T17:37:12.162Z,30.70
2023-03-04T17:39:44.773Z,29.10
2023-03-04T17:42:17.176Z,30.70
2023-03-04T17:44:49.693Z,30.10
2023-03-04T17:47:22.709Z,31.50
2023-03-04T17:49:54.972Z,30.40
2023-03-04T17:52:27.373Z,30.20
2023-03-04T17:54:59.658Z,32.00
2023-03-04T17:57:32.109Z,30.60
2023-03-04T18:00:04.753Z,30.00
2023-03-04T18:02:37.203Z,30.30
2023-03-04T18:05:11.513Z,31.80
2023-03-04T18:07:43.773Z,29.60
2023-03-04T18:10:16.201Z,30.50
2023-03-04T18:12:48.683Z,30.00
2023-03-04T18:15:21.165Z,34.00
2023-03-04T18:17:53.438Z,31.10
2023-03-04T18:20:25.782Z,33.50
2023-03-04T18:22:58.997Z,31.20
2023-03-04T18:25:31.343Z,30.90
2023-03-04T18:28:04.432Z,33.80
2023-03-04T18:30:36.783Z,31.00
2023-03-04T18:33:09.059Z,29.10
2023-03-04T18:35:41.489Z,28.50
2023-03-04T18:38:13.777Z,29.20
2023-03-04T18:40:46.324Z,25.60
2023-03-04T18:43:18.705Z,30.90
2023-03-04T18:46:00.361Z,30.00
2023-03-04T18:48:36.000Z,26.00
2023-03-04T18:51:09.070Z,26.80
2023-03-04T18:53:42.293Z,28.60
2023-03-04T18:56:18.503Z,31.20
2023-03-04T18:58:52.987Z,32.00
2023-03-04T19:01:27.505Z,29.70
2023-03-04T19:04:04.777Z,33.10
2023-03-04T19:06:37.198Z,31.20
2023-03-04T19:09:10.007Z,30.40
2023-03-04T19:11:42.279Z,32.30
2023-03-04T19:14:14.540Z,32.60
2023-03-04T19:16:46.930Z,31.10
2023-03-04T19:19:19.435Z,32.50
2023-03-04T19:21:51.829Z,33.10
2023-03-04T19:24:24.496Z,34.50
2023-03-04T19:26:56.878Z,32.50
2023-03-04T19:29:29.967Z,31.90
2023-03-04T19:32:02.392Z,32.70
2023-03-04T19:34:34.804Z,34.20
2023-03-04T19:37:07.157Z,28.80
2023-03-04T19:39:39.592Z,33.80
2023-03-04T19:42:12.253Z,35.40
2023-03-04T19:44:45.412Z,30.60
2023-03-04T19:47:18.040Z,30.60
2023-03-04T19:49:50.621Z,30.80
2023-03-04T19:52:23.352Z,28.80
2023-03-04T19:54:56.070Z,26.80
2023-03-04T19:57:28.460Z,28.30
2023-03-04T20:00:00.821Z,28.40
2023-03-04T20:02:33.102Z,32.50
2023-03-04T20:05:06.031Z,31.40
2023-03-04T20:07:38.449Z,32.00
2023-03-04T20:10:14.482Z,32.80
2023-03-04T20:12:46.686Z,30.70
2023-03-04T20:15:19.094Z,30.70
2023-03-04T20:17:51.343Z,27.80
2023-03-04T20:20:25.286Z,29.20
2023-03-04T20:22:57.930Z,32.40
2023-03-04T20:25:32.072Z,29.50
2023-03-04T20:28:04.473Z,26.00
2023-03-04T20:30:36.759Z,29.90
2023-03-04T20:33:09.085Z,25.60
2023-03-04T20:35:41.755Z,28.20
2023-03-04T20:38:15.154Z,29.60
2023-03-04T20:40:47.536Z,26.60
2023-03-04T20:43:20.015Z,30.00
2023-03-04T20:45:52.326Z,29.40
2023-03-04T20:48:24.660Z,26.50
2023-03-04T20:50:57.253Z,31.00
2023-03-04T20:53:29.621Z,29.00
2023-03-04T20:56:05.400Z,31.50
2023-03-04T21:01:08.666Z,28.50
2023-03-04T21:03:41.341Z,24.60
2023-03-04T21:06:14.636Z,28.00
2023-03-04T21:08:46.948Z,28.60
2023-03-04T21:11:19.970Z,27.60
2023-03-04T21:13:57.869Z,27.50
2023-03-04T21:16:31.275Z,32.30
2023-03-04T21:19:03.596Z,28.50
2023-03-04T21:21:36.086Z,26.60
2023-03-04T21:24:09.016Z,31.20
2023-03-04T21:26:43.152Z,29.50
2023-03-04T21:29:15.828Z,28.70
2023-03-04T21:31:51.679Z,27.60
2023-03-04T21:34:26.907Z,31.30
2023-03-04T21:36:59.152Z,29.20
2023-03-04T21:39:32.114Z,28.80
2023-03-04T21:42:05.208Z,29.40
2023-03-04T21:44:49.302Z,27.30
2023-03-04T21:47:23.056Z,29.60
2023-03-04T21:49:55.640Z,31.40
2023-03-04T21:52:28.025Z,30.10
2023-03-04T21:55:00.733Z,31.50
2023-03-04T21:57:33.392Z,27.90
2023-03-04T22:00:06.926Z,24.60
2023-03-04T22:02:39.665Z,26.30
2023-03-04T22:05:12.661Z,30.00
2023-03-04T22:07:45.097Z,28.50
2023-03-04T22:10:17.548Z,32.40
2023-03-04T22:12:49.917Z,25.40
2023-03-04T22:15:22.368Z,26.80
2023-03-04T22:17:54.668Z,28.20
2023-03-04T22:20:27.149Z,30.40
2023-03-04T22:22:59.834Z,26.80
2023-03-04T22:25:32.504Z,25.90
2023-03-04T22:28:05.657Z,24.60
2023-03-04T22:30:38.984Z,24.10
2023-03-04T22:33:11.271Z,27.60
2023-03-04T22:35:44.435Z,25.80
2023-03-04T22:38:17.172Z,33.00
2023-03-04T22:40:50.195Z,26.80
2023-03-04T22:43:22.459Z,27.70
2023-03-04T22:45:55.230Z,29.10
2023-03-04T22:48:27.967Z,25.10
2023-03-04T22:51:05.942Z,27.60
2023-03-04T22:53:39.014Z,26.70
2023-03-04T22:56:12.107Z,32.10
2023-03-04T22:58:45.655Z,29.00
2023-03-04T23:01:19.556Z,26.50
2023-03-04T23:03:52.264Z,30.50
2023-03-04T23:06:27.901Z,26.00
2023-03-04T23:09:01.356Z,26.80
2023-03-04T23:11:36.600Z,29.30
2023-03-04T23:14:09.681Z,27.10
2023-03-04T23:16:44.475Z,26.00
2023-03-04T23:19:18.670Z,27.20
2023-03-04T23:21:51.085Z,20.10
2023-03-04T23:24:24.727Z,23.00
2023-03-04T23:26:57.053Z,23.30
2023-03-04T23:29:29.566Z,25.50
2023-03-04T23:32:02.223Z,24.60
2023-03-04T23:34:36.204Z,24.00
2023-03-04T23:37:08.808Z,28.50
2023-03-04T23:39:41.164Z,26.80
2023-03-04T23:42:13.581Z,28.30
2023-03-04T23:44:46.138Z,28.50
2023-03-04T23:47:18.542Z,28.80
2023-03-04T23:49:51.218Z,30.10
2023-03-04T23:52:23.653Z,26.70
2023-03-04T23:54:56.077Z,29.10
2023-03-04T23:57:28.628Z,27.20
